createdAt,value
2022-11-12T00:02:07.840Z,7.20
2022-11-12T00:07:29.402Z,7.32
2022-11-12T00:12:51.407Z,7.40
2022-11-12T00:18:14.554Z,8.52
2022-11-12T00:23:36.273Z,8.23
2022-11-12T00:28:57.561Z,6.93
2022-11-12T00:34:20.869Z,6.18
2022-11-12T00:39:42.310Z,6.55
2022-11-12T00:45:03.936Z,6.85
2022-11-12T00:50:27.315Z,8.52
2022-11-12T00:55:48.967Z,6.00
2022-11-12T01:01:13.039Z,8.73
2022-11-12T01:06:36.074Z,7.93
2022-11-12T01:11:57.861Z,7.00
2022-11-12T01:17:19.474Z,6.72
2022-11-12T01:22:42.490Z,9.00
2022-11-12T01:28:04.295Z,7.78
2022-11-12T01:33:25.849Z,9.40
2022-11-12T01:38:49.772Z,10.73
2022-11-12T01:44:14.567Z,8.75
2022-11-12T01:49:41.807Z,8.95
2022-11-12T01:55:09.089Z,8.02
2022-11-12T02:00:30.379Z,8.23
2022-11-12T02:05:56.843Z,8.32
2022-11-12T02:11:21.763Z,7.03
2022-11-12T02:16:46.385Z,10.55
2022-11-12T02:22:09.407Z,11.55
2022-11-12T02:27:30.773Z,8.40
2022-11-12T02:32:52.121Z,7.20
2022-11-12T02:38:16.163Z,5.82
2022-11-12T02:43:38.065Z,6.82
2022-11-12T02:48:59.317Z,4.50
2022-11-12T02:54:22.201Z,5.40
2022-11-12T02:59:43.921Z,4.93
2022-11-12T03:05:05.658Z,4.57
2022-11-12T03:10:32.042Z,7.15
2022-11-12T03:16:00.254Z,7.23
2022-11-12T03:21:21.927Z,4.45
2022-11-12T03:26:44.813Z,4.57
2022-11-12T03:32:06.459Z,6.05
2022-11-12T03:37:28.054Z,6.32
2022-11-12T03:42:52.308Z,7.43
2022-11-12T03:48:13.909Z,6.30
2022-11-12T03:53:35.167Z,5.65
2022-11-12T03:58:58.302Z,4.68
2022-11-12T04:04:19.972Z,6.68
2022-11-12T04:09:41.611Z,4.80
2022-11-12T04:15:05.610Z,5.05
2022-11-12T04:20:44.916Z,4.68
2022-11-12T04:26:24.884Z,5.22
2022-11-12T04:31:47.688Z,7.45
2022-11-12T04:37:09.670Z,9.30
2022-11-12T04:42:48.608Z,6.72
2022-11-12T04:48:11.813Z,10.63
2022-11-12T04:53:33.878Z,8.05
2022-11-12T04:58:55.214Z,8.18
2022-11-12T05:04:18.239Z,5.75
2022-11-12T05:09:40.229Z,5.15
2022-11-12T05:15:02.662Z,5.95
2022-11-12T05:20:25.593Z,5.00
2022-11-12T05:25:47.178Z,5.07
2022-11-12T05:31:09.097Z,5.75
2022-11-12T05:36:32.253Z,8.10
2022-11-12T05:42:11.939Z,7.45
2022-11-12T05:47:34.143Z,6.80
2022-11-12T05:52:57.121Z,5.78
2022-11-12T05:58:18.455Z,5.75
2022-11-12T06:03:40.360Z,7.00
2022-11-12T06:09:03.469Z,4.82
2022-11-12T06:14:25.211Z,4.13
2022-11-12T06:19:47.894Z,6.90
2022-11-12T06:25:10.929Z,8.32
2022-11-12T06:30:32.355Z,8.68
2022-11-12T06:36:03.061Z,9.25
2022-11-12T06:41:26.001Z,7.97
2022-11-12T06:46:48.570Z,9.68
2022-11-12T06:52:16.256Z,11.23
2022-11-12T06:57:39.493Z,10.95
2022-11-12T07:03:07.417Z,8.93
2022-11-12T07:08:29.529Z,9.90
2022-11-12T07:13:52.366Z,6.97
2022-11-12T07:19:14.034Z,10.75
2022-11-12T07:24:35.643Z,11.35
2022-11-12T07:29:58.941Z,10.60
2022-11-12T07:35:20.497Z,15.27
2022-11-12T07:40:41.989Z,19.92
2022-11-12T07:46:10.780Z,8.27
2022-11-12T07:51:32.726Z,8.30
2022-11-12T07:56:54.495Z,10.40
2022-11-12T08:02:17.350Z,7.45
2022-11-12T08:07:40.118Z,11.88
2022-11-12T08:13:01.725Z,8.60
2022-11-12T08:18:24.804Z,8.95
2022-11-12T08:23:55.651Z,8.63
2022-11-12T08:29:17.233Z,9.43
2022-11-12T08:34:43.764Z,14.57
2022-11-12T08:40:08.525Z,8.67
2022-11-12T08:45:30.880Z,16.48
2022-11-12T08:50:54.285Z,10.05
2022-11-12T08:56:17.463Z,8.13
2022-11-12T09:01:39.268Z,8.57
2022-11-12T09:07:02.686Z,8.95
2022-11-12T09:12:30.244Z,27.88
2022-11-12T09:17:56.421Z,9.13
2022-11-12T09:23:19.484Z,9.13
2022-11-12T09:28:41.145Z,12.85
2022-11-12T09:34:02.599Z,10.18
2022-11-12T09:39:26.522Z,10.10
2022-11-12T09:44:57.321Z,8.77
2022-11-12T09:50:25.829Z,6.70
2022-11-12T09:55:55.626Z,8.32
2022-11-12T10:01:24.453Z,9.43
2022-11-12T10:06:51.799Z,11.63
2022-11-12T10:12:34.271Z,8.77
2022-11-12T10:18:08.211Z,10.30
2022-11-12T10:23:33.876Z,10.38
2022-11-12T10:29:02.620Z,6.90
2022-11-12T10:34:26.203Z,24.08
2022-11-12T10:39:48.104Z,7.75
2022-11-12T10:45:23.109Z,8.63
2022-11-12T10:50:44.584Z,7.93
2022-11-12T10:56:26.564Z,7.55
2022-11-12T11:01:57.726Z,7.57
2022-11-12T11:07:23.287Z,8.75
2022-11-12T11:12:44.783Z,35.33
2022-11-12T11:18:10.323Z,12.32
2022-11-12T11:23:36.923Z,14.45
2022-11-12T11:34:43.998Z,8.90
2022-11-12T11:40:16.625Z,8.00
2022-11-12T11:45:55.539Z,10.05
2022-11-12T11:51:35.618Z,10.77
2022-11-12T11:57:00.393Z,12.43
2022-11-12T12:02:36.175Z,14.60
2022-11-12T12:08:05.237Z,9.82
2022-11-12T12:13:38.327Z,10.80
2022-11-12T12:19:09.083Z,10.88
2022-11-12T12:24:38.569Z,11.93
2022-11-12T12:30:21.274Z,14.85
2022-11-12T12:35:52.908Z,11.13
2022-11-12T12:41:27.822Z,10.68
2022-11-12T12:46:54.420Z,12.27
2022-11-12T12:52:15.961Z,12.00
2022-11-12T12:57:41.087Z,13.30
2022-11-12T13:03:05.863Z,13.50
2022-11-12T13:08:27.979Z,16.10
2022-11-12T13:13:51.111Z,14.82
2022-11-12T13:19:28.413Z,14.57
2022-11-12T13:25:04.549Z,12.10
2022-11-12T13:30:59.370Z,16.03
2022-11-12T13:36:30.166Z,13.65
2022-11-12T13:42:15.954Z,12.73
2022-11-12T13:47:39.215Z,12.32
2022-11-12T13:53:02.433Z,18.30
2022-11-12T13:58:31.944Z,14.60
2022-11-12T14:03:54.554Z,14.60
2022-11-12T14:09:43.999Z,13.07
2022-11-12T14:15:26.371Z,14.75
2022-11-12T14:20:48.095Z,18.05
2022-11-12T14:26:13.567Z,14.60
2022-11-12T14:31:34.979Z,13.93
2022-11-12T14:36:59.216Z,19.55
2022-11-12T14:42:23.419Z,16.25
2022-11-12T14:47:45.563Z,14.13
2022-11-12T14:53:14.029Z,14.55
2022-11-12T14:58:37.245Z,13.15
2022-11-12T15:04:19.770Z,14.02
2022-11-12T15:09:41.644Z,14.27
2022-11-12T15:15:11.694Z,31.33
2022-11-12T15:20:33.068Z,21.88
2022-11-12T15:26:01.949Z,14.65
2022-11-12T15:31:25.030Z,16.98
2022-11-12T15:36:46.771Z,18.73
2022-11-12T15:42:16.881Z,14.45
2022-11-12T15:47:39.490Z,19.13
2022-11-12T15:53:00.974Z,16.27
2022-11-12T15:58:31.210Z,15.73
2022-11-12T16:03:54.400Z,24.77
2022-11-12T16:09:15.588Z,19.92
2022-11-12T16:14:37.262Z,17.45
2022-11-12T16:20:01.298Z,22.75
2022-11-12T16:25:23.420Z,29.60
2022-11-12T16:30:45.885Z,15.30
2022-11-12T16:36:15.207Z,16.15
2022-11-12T16:41:36.623Z,15.63
2022-11-12T16:46:59.314Z,17.52
2022-11-12T16:52:22.298Z,27.90
2022-11-12T16:57:43.999Z,15.60
2022-11-12T17:03:05.706Z,16.40
2022-11-12T17:08:33.728Z,18.15
2022-11-12T17:13:55.786Z,16.88
2022-11-12T17:19:16.955Z,21.00
2022-11-12T17:24:41.254Z,22.23
2022-11-12T17:30:02.800Z,21.17
2022-11-12T17:35:24.439Z,20.05
2022-11-12T17:40:47.592Z,19.23
2022-11-12T17:46:11.177Z,24.05
2022-11-12T17:51:34.300Z,19.65
2022-11-12T17:56:57.583Z,14.88
2022-11-12T18:02:19.075Z,14.95
2022-11-12T18:07:40.692Z,15.35
2022-11-12T18:13:05.095Z,31.95
2022-11-12T18:18:26.948Z,17.17
2022-11-12T18:23:48.694Z,14.27
2022-11-12T18:29:12.499Z,14.05
2022-11-12T18:34:34.065Z,15.63
2022-11-12T18:39:55.559Z,17.33
2022-11-12T18:45:19.128Z,16.10
2022-11-12T18:50:41.303Z,15.32
2022-11-12T18:56:05.280Z,14.57
2022-11-12T19:01:27.965Z,15.45
2022-11-12T19:06:49.528Z,15.68
2022-11-12T19:12:10.936Z,19.02
2022-11-12T19:17:33.953Z,24.10
2022-11-12T19:22:55.658Z,15.50
2022-11-12T19:28:17.252Z,19.13
2022-11-12T19:33:40.849Z,18.85
2022-11-12T19:39:02.900Z,18.65
2022-11-12T19:44:25.041Z,17.20
2022-11-12T19:49:47.924Z,17.30
2022-11-12T19:55:10.544Z,17.30
2022-11-12T20:00:32.258Z,17.17
2022-11-12T20:06:01.250Z,18.15
2022-11-12T20:11:23.284Z,17.20
2022-11-12T20:16:44.946Z,16.88
2022-11-12T20:22:07.809Z,18.63
2022-11-12T20:27:29.334Z,21.27
2022-11-12T20:32:52.272Z,19.02
2022-11-12T20:38:15.282Z,18.55
2022-11-12T20:43:36.682Z,20.75
2022-11-12T20:48:58.331Z,17.90
2022-11-12T20:54:21.611Z,16.15
2022-11-12T20:59:43.331Z,15.75
2022-11-12T21:05:05.745Z,14.80
2022-11-12T21:10:29.577Z,16.23
2022-11-12T21:15:51.606Z,16.73
2022-11-12T21:21:14.893Z,15.30
2022-11-12T21:26:37.911Z,13.70
2022-11-12T21:32:00.105Z,13.98
2022-11-12T21:37:21.498Z,14.90
2022-11-12T21:42:44.787Z,13.40
2022-11-12T21:48:06.613Z,15.10
2022-11-12T21:53:28.981Z,14.13
2022-11-12T21:58:53.347Z,14.20
2022-11-12T22:04:18.262Z,16.83
2022-11-12T22:09:40.198Z,21.70
2022-11-12T22:15:03.303Z,23.35
2022-11-12T22:20:24.809Z,18.73
2022-11-12T22:25:46.384Z,23.35
2022-11-12T22:31:14.078Z,19.48
2022-11-12T22:36:36.660Z,17.42
2022-11-12T22:41:57.915Z,19.08
2022-11-12T22:47:20.867Z,21.25
2022-11-12T22:52:48.818Z,18.23
2022-11-12T22:58:11.943Z,21.02
2022-11-12T23:03:35.610Z,20.50
2022-11-12T23:08:59.291Z,17.17
2022-11-12T23:14:21.023Z,14.00
2022-11-12T23:19:44.977Z,14.25
2022-11-12T23:25:08.826Z,12.65
2022-11-12T23:30:31.169Z,12.77
2022-11-12T23:35:53.977Z,12.85
2022-11-12T23:41:17.217Z,12.63
2022-11-12T23:46:39.921Z,10.27
2022-11-12T23:52:02.990Z,11.70
2022-11-12T23:57:24.562Z,12.00
